Map

Track Data

SID SEASON NUMBER BASIN SUBBASIN NAME ISO_TIME NATURE LAT LON WMO_WIND WMO_PRES WMO_AGENCY TRACK_TYPE DIST2LAND LANDFALL IFLAG USA_AGENCY USA_ATCF_ID USA_LAT USA_LON USA_RECORD USA_STATUS USA_WIND USA_PRES USA_SSHS USA_R34_NE USA_R34_SE USA_R34_SW USA_R34_NW USA_R50_NE USA_R50_SE USA_R50_SW USA_R50_NW USA_R64_NE USA_R64_SE USA_R64_SW USA_R64_NW USA_POCI USA_ROCI USA_RMW USA_EYE TOKYO_LAT TOKYO_LON TOKYO_GRADE TOKYO_WIND TOKYO_PRES TOKYO_R50_DIR TOKYO_R50_LONG TOKYO_R50_SHORT TOKYO_R30_DIR TOKYO_R30_LONG TOKYO_R30_SHORT TOKYO_LAND CMA_LAT CMA_LON CMA_CAT CMA_WIND CMA_PRES HKO_LAT HKO_LON HKO_CAT HKO_WIND HKO_PRES NEWDELHI_LAT NEWDELHI_LON NEWDELHI_GRADE NEWDELHI_WIND NEWDELHI_PRES NEWDELHI_CI NEWDELHI_DP NEWDELHI_POCI REUNION_LAT REUNION_LON REUNION_TYPE REUNION_WIND REUNION_PRES REUNION_TNUM REUNION_CI REUNION_RMW REUNION_R34_NE REUNION_R34_SE REUNION_R34_SW REUNION_R34_NW REUNION_R50_NE REUNION_R50_SE REUNION_R50_SW REUNION_R50_NW REUNION_R64_NE REUNION_R64_SE REUNION_R64_SW REUNION_R64_NW BOM_LAT BOM_LON BOM_TYPE BOM_WIND BOM_PRES BOM_TNUM BOM_CI BOM_RMW BOM_R34_NE BOM_R34_SE BOM_R34_SW BOM_R34_NW BOM_R50_NE BOM_R50_SE BOM_R50_SW BOM_R50_NW BOM_R64_NE BOM_R64_SE BOM_R64_SW BOM_R64_NW BOM_ROCI BOM_POCI BOM_EYE BOM_POS_METHOD BOM_PRES_METHOD NADI_LAT NADI_LON NADI_CAT NADI_WIND NADI_PRES WELLINGTON_LAT WELLINGTON_LON WELLINGTON_WIND WELLINGTON_PRES DS824_LAT DS824_LON DS824_STAGE DS824_WIND DS824_PRES TD9636_LAT TD9636_LON TD9636_STAGE TD9636_WIND TD9636_PRES TD9635_LAT TD9635_LON TD9635_WIND TD9635_PRES TD9635_ROCI NEUMANN_LAT NEUMANN_LON NEUMANN_CLASS NEUMANN_WIND NEUMANN_PRES MLC_LAT MLC_LON MLC_CLASS MLC_WIND MLC_PRES USA_GUST BOM_GUST BOM_GUST_PER REUNION_GUST REUNION_GUST_PER USA_SEAHGT USA_SEARAD_NE USA_SEARAD_SE USA_SEARAD_SW USA_SEARAD_NW STORM_SPEED STORM_DIR
1974074S35163 1974 23 SP MM ZOE 1974-03-14 18:00:00 NR -35.3411 163.124 spur-other 868 788 ______________ -1 14 97
1974074S35163 1974 23 SP MM ZOE 1974-03-14 21:00:00 NR -35.4232 164.001 spur-other 788 717 ______________ -1 15 96
1974074S35163 1974 23 SP MM ZOE 1974-03-15 00:00:00 NR -35.5000 164.900 40 990 wellington spur-other 708 602 ________O_____ -1 -35.5000 164.900 40 990 18 96
1974074S35163 1974 23 SP MM ZOE 1974-03-15 03:00:00 NR -35.6110 166.192 spur-other 593 490 ________P_____ -1 -35.5469 166.455 43 987 21 96
1974074S35163 1974 23 SP MM ZOE 1974-03-15 06:00:00 NR -35.7192 167.464 spur-other 481 407 ________P_____ -1 -35.6132 167.788 47 985 18 97
1974074S35163 1974 23 SP MM ZOE 1974-03-15 09:00:00 NR -35.8410 168.453 spur-other 399 369 ________P_____ -1 -35.7472 168.678 51 982 12 104
1974074S35163 1974 23 SP MM ZOE 1974-03-15 12:00:00 NR -36.0000 168.900 55 980 wellington spur-other 374 374 ________O_____ -1 -36.0000 168.900 55 980 6 191
1974074S35163 1974 23 SP MM ZOE 1974-03-15 15:00:00 NR -36.3848 168.325 spur-other 442 442 ________P_____ -1 -36.3848 168.325 55 980 16 240
1974074S35163 1974 23 SP MM ZOE 1974-03-15 18:00:00 NR -36.7789 167.215 spur-other 550 550 ________P_____ -1 -36.7789 167.215 55 980 20 251
1974074S35163 1974 23 SP MM ZOE 1974-03-15 21:00:00 NR -37.0301 165.943 spur-other 664 664 ________P_____ -1 -37.0301 165.943 55 980 19 263
1974074S35163 1974 23 SP MM ZOE 1974-03-16 00:00:00 NR -37.0000 164.900 55 980 wellington spur-other 746 746 ________O_____ -1 -37.0000 164.900 55 980 13 295
1974074S35163 1974 23 SP MM ZOE 1974-03-16 03:00:00 NR -36.4667 164.429 spur-other 773 764 ________P_____ -1 -36.4667 164.429 55 980 14 339
1974074S35163 1974 23 SP MM ZOE 1974-03-16 06:00:00 NR -35.6733 164.279 spur-other 764 749 ________P_____ -1 -35.6733 164.279 55 980 17 1
1974074S35163 1974 23 SP MM ZOE 1974-03-16 09:00:00 NR -34.7940 164.465 spur-other 739 699 ________P_____ -1 -34.7940 164.465 55 980 18 20
1974074S35163 1974 23 SP MM ZOE 1974-03-16 12:00:00 NR -34.0000 165.000 55 980 wellington spur-other 699 635 ________O_____ -1 -34.0000 165.000 55 980 18 42
1974074S35163 1974 23 SP MM ZOE 1974-03-16 15:00:00 NR -33.4582 165.895 spur-other 626 539 ________P_____ -1 -33.4198 165.883 55 980 20 61
1974074S35163 1974 23 SP MM ZOE 1974-03-16 18:00:00 NR -33.0254 167.103 spur-other 534 436 ________P_____ -1 -33.0222 167.039 55 980 23 71
1974074S35163 1974 23 SP MM ZOE 1974-03-16 21:00:00 NR -32.7035 168.459 spur-other 428 348 ________P_____ -1 -32.7377 168.376 55 980 23 77
1974074S35163 1974 23 SP MM ZOE 1974-03-17 00:00:00 NR -32.5000 169.800 55 980 wellington spur-other 341 287 ________O_____ -1 -32.5000 169.800 55 980 20 80
1974074S35163 1974 23 SP MM ZOE 1974-03-17 03:00:00 NR -32.3683 170.820 spur-other 287 248 ______________ -1 17 85
1974074S35163 1974 23 SP MM ZOE 1974-03-17 06:00:00 NR -32.3642 171.764 spur-other 245 ______________ -1 16 90

Digital Typhoon Data and Search

About IBTrACS Database

This database is a web-friendly format of International Best Track Archive for Climate Stewardship (IBTrACS), a global best track data archive curated by NOAA dating back to 1842.

Updated: 2021-11-26